createdAt,value
2023-05-14T00:00:55.212Z,11.48
2023-05-14T00:03:56.993Z,11.43
2023-05-14T00:06:58.961Z,11.42
2023-05-14T00:10:00.690Z,11.38
2023-05-14T00:13:02.659Z,11.37
2023-05-14T00:16:04.578Z,11.33
2023-05-14T00:19:06.576Z,11.32
2023-05-14T00:22:09.140Z,11.32
2023-05-14T00:25:11.021Z,11.30
2023-05-14T00:28:12.608Z,11.32
2023-05-14T00:31:14.171Z,11.31
2023-05-14T00:34:15.835Z,11.32
2023-05-14T00:37:17.467Z,11.31
2023-05-14T00:40:19.943Z,11.33
2023-05-14T00:43:22.653Z,11.29
2023-05-14T00:46:24.485Z,11.34
2023-05-14T00:49:26.680Z,11.32
2023-05-14T00:52:28.397Z,11.33
2023-05-14T00:55:31.052Z,11.31
2023-05-14T00:58:32.643Z,11.32
2023-05-14T01:01:34.428Z,11.30
2023-05-14T01:04:36.607Z,11.27
2023-05-14T01:07:59.762Z,11.25
2023-05-14T01:11:27.824Z,11.25
2023-05-14T01:14:52.616Z,11.23
2023-05-14T01:18:02.557Z,11.20
2023-05-14T01:21:04.331Z,11.18
2023-05-14T01:24:06.950Z,11.17
2023-05-14T01:27:23.535Z,11.15
2023-05-14T01:30:50.787Z,11.12
2023-05-14T01:33:54.510Z,11.12
2023-05-14T01:36:57.709Z,11.08
2023-05-14T01:40:00.342Z,11.07
2023-05-14T01:43:03.466Z,11.05
2023-05-14T01:46:05.318Z,11.06
2023-05-14T01:49:07.183Z,11.06
2023-05-14T01:52:09.149Z,11.06
2023-05-14T01:55:11.527Z,11.07
2023-05-14T01:58:13.504Z,11.05
2023-05-14T02:01:15.211Z,11.04
2023-05-14T02:04:16.988Z,11.05
2023-05-14T02:07:18.735Z,11.04
2023-05-14T02:10:21.266Z,11.05
2023-05-14T02:13:26.682Z,11.02
2023-05-14T02:16:28.376Z,11.05
2023-05-14T02:19:30.539Z,11.06
2023-05-14T02:22:32.625Z,11.07
2023-05-14T02:25:34.521Z,11.05
2023-05-14T02:28:36.126Z,11.05
2023-05-14T02:31:37.879Z,11.03
2023-05-14T02:34:39.473Z,11.03
2023-05-14T02:37:41.318Z,11.04
2023-05-14T02:40:42.895Z,11.03
2023-05-14T02:43:44.473Z,11.06
2023-05-14T02:46:46.554Z,11.06
2023-05-14T02:49:48.178Z,11.06
2023-05-14T02:52:49.808Z,11.03
2023-05-14T02:55:51.432Z,11.02
2023-05-14T02:58:53.135Z,11.02
2023-05-14T03:01:55.336Z,10.99
2023-05-14T03:04:57.502Z,11.00
2023-05-14T03:07:59.076Z,10.98
2023-05-14T03:11:00.740Z,10.95
2023-05-14T03:14:03.587Z,10.94
2023-05-14T03:17:05.521Z,10.92
2023-05-14T03:20:07.545Z,10.92
2023-05-14T03:23:11.095Z,10.92
2023-05-14T03:26:13.186Z,10.90
2023-05-14T03:29:17.988Z,10.86
2023-05-14T03:32:19.754Z,10.84
2023-05-14T03:35:22.460Z,10.83
2023-05-14T03:38:24.048Z,10.81
2023-05-14T03:41:26.192Z,10.79
2023-05-14T03:44:27.848Z,10.76
2023-05-14T03:47:29.480Z,10.73
2023-05-14T03:50:32.427Z,10.71
2023-05-14T03:53:34.157Z,10.73
2023-05-14T03:56:35.821Z,10.70
2023-05-14T03:59:38.253Z,10.69
2023-05-14T04:02:39.904Z,10.69
2023-05-14T04:05:41.669Z,10.66
2023-05-14T04:08:43.223Z,10.67
2023-05-14T04:11:44.738Z,10.67
2023-05-14T04:14:46.351Z,10.68
2023-05-14T04:17:47.907Z,10.68
2023-05-14T04:20:49.762Z,10.70
2023-05-14T04:23:51.935Z,10.70
2023-05-14T04:26:53.982Z,10.69
2023-05-14T04:29:55.966Z,10.69
2023-05-14T04:32:58.230Z,10.67
2023-05-14T04:36:00.155Z,10.71
2023-05-14T04:39:02.422Z,10.72
2023-05-14T04:42:04.492Z,10.72
2023-05-14T04:45:07.335Z,10.75
2023-05-14T04:48:09.457Z,10.75
2023-05-14T04:51:11.639Z,10.78
2023-05-14T04:54:13.325Z,10.80
2023-05-14T04:57:16.489Z,10.81
2023-05-14T05:00:19.236Z,10.82
2023-05-14T05:03:21.389Z,10.83
2023-05-14T05:06:23.340Z,10.80
2023-05-14T05:09:24.919Z,10.84
2023-05-14T05:12:30.015Z,10.80
2023-05-14T05:15:31.880Z,10.83
2023-05-14T05:18:33.783Z,10.81
2023-05-14T05:21:36.320Z,10.83
2023-05-14T05:24:38.386Z,10.81
2023-05-14T05:27:40.092Z,10.84
2023-05-14T05:30:41.733Z,10.86
2023-05-14T05:33:44.857Z,10.88
2023-05-14T05:36:46.396Z,10.90
2023-05-14T05:39:48.322Z,10.94
2023-05-14T05:42:50.332Z,10.92
2023-05-14T05:45:52.674Z,10.95
2023-05-14T05:48:56.166Z,10.98
2023-05-14T05:51:58.323Z,11.01
2023-05-14T05:55:01.056Z,11.00
2023-05-14T05:58:03.116Z,10.97
2023-05-14T06:01:05.150Z,11.03
2023-05-14T06:04:06.818Z,11.02
2023-05-14T06:07:08.405Z,11.06
2023-05-14T06:10:10.333Z,11.08
2023-05-14T06:13:12.298Z,11.10
2023-05-14T06:16:14.513Z,11.10
2023-05-14T06:19:16.285Z,11.06
2023-05-14T06:22:20.047Z,11.09
2023-05-14T06:25:22.169Z,11.12
2023-05-14T06:28:24.200Z,11.14
2023-05-14T06:31:26.883Z,11.12
2023-05-14T06:34:29.070Z,11.12
2023-05-14T06:37:30.895Z,11.11
2023-05-14T06:40:32.564Z,11.13
2023-05-14T06:43:34.650Z,11.15
2023-05-14T06:46:37.421Z,11.16
2023-05-14T06:49:39.623Z,11.16
2023-05-14T06:52:43.930Z,11.19
2023-05-14T06:55:47.845Z,11.18
2023-05-14T06:58:49.812Z,11.19
2023-05-14T07:01:52.024Z,11.19
2023-05-14T07:04:54.160Z,11.20
2023-05-14T07:07:55.802Z,11.18
2023-05-14T07:10:57.664Z,11.16
2023-05-14T07:14:00.046Z,11.18
2023-05-14T07:17:02.065Z,11.13
2023-05-14T07:20:04.083Z,11.18
2023-05-14T07:23:06.143Z,11.18
2023-05-14T07:26:08.668Z,11.23
2023-05-14T07:29:10.578Z,11.26
2023-05-14T07:32:15.465Z,11.26
2023-05-14T07:35:18.002Z,11.28
2023-05-14T07:38:20.297Z,11.30
2023-05-14T07:41:21.926Z,11.29
2023-05-14T07:44:24.838Z,11.30
2023-05-14T07:47:26.620Z,11.29
2023-05-14T07:50:29.584Z,11.25
2023-05-14T07:53:31.380Z,11.29
2023-05-14T07:56:33.444Z,11.28
2023-05-14T07:59:35.060Z,11.26
2023-05-14T08:02:37.797Z,11.25
2023-05-14T08:05:39.939Z,11.29
2023-05-14T08:08:41.922Z,11.30
2023-05-14T08:11:43.539Z,11.32
2023-05-14T08:14:45.670Z,11.39
2023-05-14T08:17:47.646Z,11.46
2023-05-14T08:20:49.250Z,11.53
2023-05-14T08:23:51.240Z,11.58
2023-05-14T08:26:53.105Z,11.62
2023-05-14T08:29:55.132Z,11.65
2023-05-14T08:32:58.739Z,11.68
2023-05-14T08:36:00.653Z,11.70
2023-05-14T08:39:02.724Z,11.79
2023-05-14T08:42:06.719Z,11.85
2023-05-14T08:45:25.720Z,11.91
2023-05-14T08:48:33.498Z,11.95
2023-05-14T08:51:35.976Z,12.00
2023-05-14T08:54:38.095Z,12.02
2023-05-14T08:57:40.326Z,12.11
2023-05-14T09:00:42.669Z,12.23
2023-05-14T09:03:45.818Z,12.35
2023-05-14T09:06:51.195Z,12.47
2023-05-14T09:09:54.997Z,12.59
2023-05-14T09:12:57.485Z,12.71
2023-05-14T09:16:03.445Z,12.75
2023-05-14T09:19:07.018Z,12.78
2023-05-14T09:22:11.519Z,12.85
2023-05-14T09:25:13.573Z,12.85
2023-05-14T09:28:19.068Z,12.88
2023-05-14T09:31:21.269Z,12.91
2023-05-14T09:34:28.682Z,12.98
2023-05-14T09:37:30.780Z,13.06
2023-05-14T09:40:32.760Z,13.13
2023-05-14T09:43:34.400Z,13.18
2023-05-14T09:46:36.247Z,13.23
2023-05-14T09:49:39.778Z,13.22
2023-05-14T09:52:42.643Z,13.25
2023-05-14T09:55:45.278Z,13.27
2023-05-14T09:58:46.940Z,13.28
2023-05-14T10:01:49.934Z,13.28
2023-05-14T10:04:54.435Z,13.26
2023-05-14T10:07:59.700Z,13.24
2023-05-14T10:11:06.900Z,13.27
2023-05-14T10:14:08.844Z,13.27
2023-05-14T10:17:18.453Z,13.33
2023-05-14T10:20:22.943Z,13.36
2023-05-14T10:23:25.333Z,13.42
2023-05-14T10:26:30.905Z,13.46
2023-05-14T10:29:37.554Z,13.50
2023-05-14T10:32:41.875Z,13.52
2023-05-14T10:35:55.673Z,13.52
2023-05-14T10:38:57.778Z,13.52
2023-05-14T10:42:00.176Z,13.54
2023-05-14T10:45:07.749Z,13.59
2023-05-14T10:48:09.975Z,13.63
2023-05-14T10:51:12.579Z,13.65
2023-05-14T10:54:16.941Z,13.71
2023-05-14T10:57:20.651Z,13.75
2023-05-14T11:00:27.653Z,13.84
2023-05-14T11:03:32.268Z,13.97
2023-05-14T11:06:36.568Z,14.10
2023-05-14T11:09:38.782Z,14.16
2023-05-14T11:12:43.692Z,14.28
2023-05-14T11:15:48.580Z,14.36
2023-05-14T11:19:01.945Z,14.42
2023-05-14T11:22:05.160Z,14.57
2023-05-14T11:25:08.180Z,14.67
2023-05-14T11:28:10.680Z,14.79
2023-05-14T11:31:13.037Z,14.89
2023-05-14T11:34:15.176Z,14.97
2023-05-14T11:37:17.855Z,14.98
2023-05-14T11:40:20.250Z,15.06
2023-05-14T11:43:28.454Z,15.09
2023-05-14T11:46:31.045Z,15.20
2023-05-14T11:49:35.950Z,15.27
2023-05-14T11:52:40.401Z,15.40
2023-05-14T11:55:42.137Z,15.48
2023-05-14T11:58:48.809Z,15.69
2023-05-14T12:01:52.537Z,15.76
2023-05-14T12:04:54.747Z,15.83
2023-05-14T12:07:56.765Z,15.90
2023-05-14T12:11:00.482Z,15.97
2023-05-14T12:14:02.121Z,16.00
2023-05-14T12:17:03.807Z,16.04
2023-05-14T12:20:13.037Z,16.11
2023-05-14T12:23:15.386Z,16.07
2023-05-14T12:26:16.990Z,15.99
2023-05-14T12:29:21.737Z,15.86
2023-05-14T12:32:26.363Z,15.76
2023-05-14T12:35:28.203Z,15.70
2023-05-14T12:38:31.999Z,15.63
2023-05-14T12:41:34.492Z,15.72
2023-05-14T12:44:36.447Z,15.82
2023-05-14T12:47:40.923Z,15.98
2023-05-14T12:50:42.918Z,16.14
2023-05-14T12:53:45.112Z,16.26
2023-05-14T12:56:46.752Z,16.39
2023-05-14T12:59:48.333Z,16.55
2023-05-14T13:02:50.356Z,16.68
2023-05-14T13:05:54.182Z,16.73
2023-05-14T13:08:56.783Z,16.77
2023-05-14T13:11:59.219Z,16.82
2023-05-14T13:15:01.314Z,16.87
2023-05-14T13:18:03.621Z,16.86
2023-05-14T13:21:06.801Z,16.91
2023-05-14T13:24:10.157Z,17.04
2023-05-14T13:27:12.099Z,17.12
2023-05-14T13:30:14.213Z,17.32
2023-05-14T13:33:16.334Z,17.47
2023-05-14T13:36:18.382Z,17.60
2023-05-14T13:39:22.746Z,17.79
2023-05-14T13:42:24.898Z,18.01
2023-05-14T13:45:26.895Z,18.04
2023-05-14T13:48:31.136Z,18.04
2023-05-14T13:51:33.852Z,18.08
2023-05-14T13:54:38.802Z,18.04
2023-05-14T13:57:41.800Z,18.04
2023-05-14T14:00:43.940Z,18.10
2023-05-14T14:03:46.055Z,18.13
2023-05-14T14:06:48.063Z,18.20
2023-05-14T14:09:49.715Z,18.22
2023-05-14T14:12:52.398Z,18.31
2023-05-14T14:15:54.480Z,18.56
2023-05-14T14:18:57.418Z,18.84
2023-05-14T14:21:59.576Z,19.17
2023-05-14T14:25:02.122Z,19.41
2023-05-14T14:28:10.072Z,19.75
2023-05-14T14:31:17.880Z,19.89
2023-05-14T14:34:21.556Z,19.95
2023-05-14T14:38:02.110Z,20.09
2023-05-14T14:41:10.396Z,20.15
2023-05-14T14:44:56.473Z,20.12
2023-05-14T14:47:53.399Z,20.20
2023-05-14T14:50:56.377Z,20.30
2023-05-14T14:53:57.946Z,20.28
2023-05-14T14:56:59.514Z,20.36
2023-05-14T15:00:02.782Z,20.39
2023-05-14T15:03:05.057Z,20.47
2023-05-14T15:06:07.258Z,20.61
2023-05-14T15:09:09.309Z,20.73
2023-05-14T15:12:11.190Z,20.84
2023-05-14T15:15:13.210Z,20.94
2023-05-14T15:18:15.177Z,21.01
2023-05-14T15:21:16.771Z,21.23
2023-05-14T15:24:18.899Z,21.44
2023-05-14T15:27:20.987Z,21.55
2023-05-14T15:30:23.147Z,21.66
2023-05-14T15:33:25.226Z,21.74
2023-05-14T15:36:27.078Z,21.58
2023-05-14T15:39:30.227Z,21.31
2023-05-14T15:42:32.039Z,20.97
2023-05-14T15:45:35.766Z,20.72
2023-05-14T15:48:38.122Z,20.47
2023-05-14T15:51:40.394Z,20.20
2023-05-14T15:54:46.668Z,19.94
2023-05-14T15:57:48.837Z,19.80
2023-05-14T16:00:50.497Z,19.67
2023-05-14T16:03:54.084Z,19.57
2023-05-14T16:07:04.290Z,19.42
2023-05-14T16:10:06.936Z,19.32
2023-05-14T16:13:09.146Z,19.20
2023-05-14T16:16:10.817Z,19.05
2023-05-14T16:19:13.023Z,18.98
2023-05-14T16:22:15.218Z,18.94
2023-05-14T16:25:18.695Z,18.81
2023-05-14T16:28:20.498Z,18.77
2023-05-14T16:31:22.326Z,18.67
2023-05-14T16:34:24.378Z,18.62
2023-05-14T16:37:26.007Z,18.49
2023-05-14T16:40:27.649Z,18.40
2023-05-14T16:43:29.689Z,18.24
2023-05-14T16:46:32.112Z,18.03
2023-05-14T16:49:34.340Z,17.80
2023-05-14T16:52:36.519Z,17.54
2023-05-14T16:55:38.620Z,17.26
2023-05-14T16:58:40.339Z,16.97
2023-05-14T17:01:43.310Z,16.64
2023-05-14T17:04:45.276Z,16.31
2023-05-14T17:07:47.051Z,15.99
2023-05-14T17:10:49.528Z,15.69
2023-05-14T17:13:51.607Z,15.41
2023-05-14T17:16:54.432Z,15.18
2023-05-14T17:19:56.358Z,14.94
2023-05-14T17:22:58.350Z,14.81
2023-05-14T17:26:00.058Z,14.68
2023-05-14T17:29:12.101Z,14.49
2023-05-14T17:32:20.826Z,14.27
2023-05-14T17:35:23.295Z,14.06
2023-05-14T17:38:26.602Z,13.90
2023-05-14T17:41:28.684Z,13.83
2023-05-14T17:44:30.306Z,13.76
2023-05-14T17:47:32.319Z,13.65
2023-05-14T17:50:34.552Z,13.51
2023-05-14T17:53:36.369Z,13.40
2023-05-14T17:56:38.971Z,13.27
2023-05-14T17:59:41.412Z,13.14
2023-05-14T18:02:43.030Z,12.99
2023-05-14T18:05:45.011Z,12.85
2023-05-14T18:08:46.775Z,12.76
2023-05-14T18:11:48.463Z,12.69
2023-05-14T18:14:50.769Z,12.67
2023-05-14T18:17:53.053Z,12.63
2023-05-14T18:20:56.199Z,12.64
2023-05-14T18:23:58.315Z,12.67
2023-05-14T18:27:00.451Z,12.65
2023-05-14T18:30:03.518Z,12.70
2023-05-14T18:33:05.237Z,12.71
2023-05-14T18:36:06.943Z,12.70
2023-05-14T18:39:08.607Z,12.65
2023-05-14T18:42:10.904Z,12.64
2023-05-14T18:45:12.546Z,12.63
2023-05-14T18:48:14.855Z,12.60
2023-05-14T18:51:16.876Z,12.56
2023-05-14T18:54:19.072Z,12.53
2023-05-14T18:57:22.217Z,12.51
2023-05-14T19:00:24.056Z,12.48
2023-05-14T19:03:26.063Z,12.46
2023-05-14T19:06:28.570Z,12.41
2023-05-14T19:09:31.151Z,12.36
2023-05-14T19:12:32.991Z,12.36
2023-05-14T19:15:34.670Z,12.35
2023-05-14T19:18:36.714Z,12.32
2023-05-14T19:21:38.720Z,12.30
2023-05-14T19:24:41.261Z,12.31
2023-05-14T19:27:43.074Z,12.30
2023-05-14T19:30:44.796Z,12.26
2023-05-14T19:33:47.477Z,12.25
2023-05-14T19:36:49.171Z,12.24
2023-05-14T19:39:50.784Z,12.23
2023-05-14T19:42:53.125Z,12.19
2023-05-14T19:45:54.719Z,12.15
2023-05-14T19:48:56.750Z,12.09
2023-05-14T19:51:58.677Z,12.05
2023-05-14T19:55:00.249Z,12.01
2023-05-14T19:58:01.868Z,11.99
2023-05-14T20:01:04.329Z,11.97
2023-05-14T20:04:07.358Z,11.91
2023-05-14T20:07:10.738Z,11.87
2023-05-14T20:10:15.949Z,11.82
2023-05-14T20:13:18.064Z,11.71
2023-05-14T20:16:19.756Z,11.64
2023-05-14T20:19:22.498Z,11.57
2023-05-14T20:22:24.771Z,11.51
2023-05-14T20:25:28.372Z,11.43
2023-05-14T20:28:31.920Z,11.42
2023-05-14T20:31:33.588Z,11.37
2023-05-14T20:34:35.202Z,11.33
2023-05-14T20:37:37.674Z,11.29
2023-05-14T20:40:39.573Z,11.24
2023-05-14T20:43:41.199Z,11.21
2023-05-14T20:46:43.861Z,11.16
2023-05-14T20:49:46.918Z,11.10
2023-05-14T20:52:49.936Z,11.03
2023-05-14T20:55:51.628Z,11.00
2023-05-14T20:58:53.935Z,10.94
2023-05-14T21:01:56.777Z,10.90
2023-05-14T21:04:59.263Z,10.82
2023-05-14T21:08:00.933Z,10.80
2023-05-14T21:11:02.910Z,10.77
2023-05-14T21:14:05.505Z,10.72
2023-05-14T21:17:07.205Z,10.68
2023-05-14T21:20:11.919Z,10.62
2023-05-14T21:23:13.861Z,10.56
2023-05-14T21:26:15.643Z,10.52
2023-05-14T21:29:17.275Z,10.49
2023-05-14T21:32:20.224Z,10.44
2023-05-14T21:35:23.006Z,10.43
2023-05-14T21:38:25.824Z,10.39
2023-05-14T21:41:27.814Z,10.40
2023-05-14T21:44:29.774Z,10.41
2023-05-14T21:47:32.995Z,10.42
2023-05-14T21:50:34.801Z,10.42
2023-05-14T21:53:37.418Z,10.42
2023-05-14T21:56:39.021Z,10.38
2023-05-14T21:59:40.713Z,10.43
2023-05-14T22:02:42.743Z,10.45
2023-05-14T22:05:44.377Z,10.47
2023-05-14T22:08:46.423Z,10.48
2023-05-14T22:11:48.066Z,10.48
2023-05-14T22:14:50.032Z,10.50
2023-05-14T22:17:52.056Z,10.51
2023-05-14T22:20:54.109Z,10.50
2023-05-14T22:23:56.109Z,10.54
2023-05-14T22:26:58.114Z,10.56
2023-05-14T22:30:01.254Z,10.59
2023-05-14T22:33:03.294Z,10.59
2023-05-14T22:36:07.373Z,10.57
2023-05-14T22:39:11.502Z,10.62
2023-05-14T22:42:15.304Z,10.62
2023-05-14T22:45:17.306Z,10.63
2023-05-14T22:48:18.962Z,10.63
2023-05-14T22:51:20.522Z,10.65
2023-05-14T22:54:22.374Z,10.64
2023-05-14T22:57:24.436Z,10.68
2023-05-14T23:00:26.033Z,10.67
2023-05-14T23:03:27.891Z,10.69
2023-05-14T23:06:30.215Z,10.71
2023-05-14T23:09:32.180Z,10.71
2023-05-14T23:12:33.983Z,10.73
2023-05-14T23:15:35.948Z,10.74
2023-05-14T23:18:37.767Z,10.77
2023-05-14T23:21:39.898Z,10.78
2023-05-14T23:24:41.894Z,10.79
2023-05-14T23:27:43.995Z,10.78
2023-05-14T23:30:46.151Z,10.79
2023-05-14T23:33:48.119Z,10.74
2023-05-14T23:36:50.723Z,10.79
2023-05-14T23:39:53.607Z,10.80
2023-05-14T23:42:55.662Z,10.83
2023-05-14T23:45:57.864Z,10.83
2023-05-14T23:48:59.684Z,10.81
2023-05-14T23:52:02.335Z,10.83
2023-05-14T23:55:05.060Z,10.80
2023-05-14T23:58:07.872Z,10.83
